METAR Formatted Surface Weather Observation
Issued by NWS

Home | Current Version | Previous Version | Text Only | Print | Product List | Glossary On
Versions: 1 2 3 4 5 6 7 8 9 10 11 12 13 14 15 16
162
SAUS41 KGYX 231356
MTRNKT
METAR KNKT 231354Z 03009KT 10SM CLR 07/03 A3015 RMK AO2 SLP204
T00670033



USA.gov is the U.S. government's official web portal to all federal, state and local government web resources and services.